Latest Weather Observations for Dunalley

IDT60901

Issued at 11:21 am EDT Monday 5 December 2016 (issued every 10 minutes, with the page automatically refreshed every 10 minutes)

About weather observations | Map of Hobart area stations | Latest observations for Hobart area | Other Formats
Station Details ID: 094254 Name: DUNALLEY (STROUD POINT) Lat: -42.90 Lon: 147.79 Height: 12.43 m
Data from the previous 72 hours. | See also: Recent months at Dunalley
Date/Time
EDT
Temp
°C
App
Temp
°C
Dew
Point
°C
Rel
Hum
%
Delta-T
°C
Wind Press
QNH
hPa
Press
MSL
hPa
Rain since
9am
mm
Dir  Spd
km/h
Gust
km/h
Spd
kts
Gust
kts
05/11:00am 18.8 11.2 7.6 48 5.7 W 37 48 20 26 1002.6 1002.6 0.0
05/10:30am 18.8 9.6 8.2 50 5.5 W 46 59 25 32 1002.1 1002.1 0.0
05/10:00am 18.1 9.5 6.6 47 5.7 W 41 61 22 33 1002.1 1002.1 0.0
05/09:54am 18.3 9.7 6.5 46 5.9 W 41 61 22 33 1002.3 1002.3 0.0
05/09:30am 18.1 11.2 6.6 47 5.7 W 32 43 17 23 1001.9 1001.9 0.0
05/09:13am 18.0 10.9 6.2 46 5.8 W 33 54 18 29 1001.6 1001.6 0.0
05/09:00am 17.7 10.6 5.3 44 6.0 W 32 48 17 26 1001.9 1001.9 4.4
05/08:55am 17.9 10.9 5.8 45 5.9 W 32 44 17 24 1001.8 1001.8 4.4
05/08:30am 17.6 7.0 7.1 50 5.2 W 52 74 28 40 999.8 999.8 4.4
05/08:23am 17.6 6.7 7.1 50 5.2 W 54 74 29 40 999.3 999.3 4.4
05/08:10am 17.7 8.3 7.2 50 5.3 W 46 65 25 35 999.2 999.2 4.4
05/08:00am 18.0 10.7 7.1 49 5.5 W 35 48 19 26 999.9 999.9 4.4
05/07:53am 18.1 11.9 6.0 45 5.9 W 28 48 15 26 999.9 999.9 4.4
05/07:30am 18.0 11.3 8.3 53 5.0 W 33 48 18 26 999.3 999.3 4.4
05/07:16am 18.6 13.3 9.7 56 4.7 W 28 48 15 26 998.8 998.8 4.4
05/07:00am 18.7 14.6 11.3 62 4.1 W 24 33 13 18 998.5 998.5 4.4
05/06:30am 18.6 12.8 10.9 61 4.2 W 32 43 17 23 997.3 997.3 4.4
05/06:04am 18.9 14.3 12.4 66 3.6 W 28 48 15 26 996.7 996.7 4.4
05/06:00am 18.7 15.3 13.6 72 2.9 WNW 24 37 13 20 996.6 996.6 4.4
05/05:30am 19.5 16.6 15.0 75 2.6 WNW 24 35 13 19 995.8 995.8 4.2
05/05:00am 19.4 17.5 15.1 76 2.5 NW 19 32 10 17 994.9 994.9 4.2
05/04:30am 19.0 17.1 15.1 78 2.3 NNW 19 33 10 18 993.7 993.7 4.2
05/04:00am 18.8 17.4 15.5 81 2.0 NNW 17 32 9 17 993.8 993.8 4.0
05/03:30am 18.5 16.1 15.4 82 1.8 N 22 33 12 18 994.0 994.0 3.6
05/03:00am 18.5 15.8 14.6 78 2.3 NE 22 37 12 20 995.4 995.4 0.2
05/02:30am 18.5 14.3 13.6 73 2.8 NE 28 35 15 19 994.9 994.9 0.0
05/02:00am 19.7 15.4 13.2 66 3.7 NNE 28 41 15 22 995.3 995.3 0.0
05/01:30am 20.0 13.1 12.7 63 4.1 N 41 57 22 31 996.1 996.1 0.0
05/01:07am 19.7 14.1 12.0 61 4.3 N 33 54 18 29 996.8 996.8 0.0
05/01:00am 19.7 14.3 12.2 62 4.2 NNE 32 43 17 23 997.2 997.2 0.0
05/12:30am 17.0 13.0 14.1 83 1.7 NE 28 35 15 19 998.4 998.4 0.0
05/12:00am 17.3 13.1 13.6 79 2.1 NE 28 35 15 19 998.9 998.9 0.0
 
Date/Time
EDT
Temp
°C
App
Temp
°C
Dew
Point
°C
Rel
Hum
%
Delta-T
°C
Wind Press
QNH
hPa
Press
MSL
hPa
Rain since
9am
mm
Dir  Spd
km/h
Gust
km/h
Spd
kts
Gust
kts
04/11:30pm 17.2 13.2 14.1 82 1.8 NE 28 35 15 19 999.9 999.9 0.0
04/11:00pm 17.3 13.7 14.2 82 1.8 NE 26 33 14 18 1000.4 1000.4 0.0
04/10:30pm 17.4 15.4 13.9 80 2.0 NE 17 24 9 13 1000.8 1000.8 0.0
04/10:00pm 17.0 13.4 14.3 84 1.6 ENE 26 32 14 17 1001.1 1001.1 0.0
04/09:30pm 16.8 12.9 14.4 86 1.4 NE 28 37 15 20 1001.9 1001.9 0.0
04/09:00pm 16.9 12.1 14.5 86 1.4 NE 33 43 18 23 1002.1 1002.1 0.0
04/08:30pm 16.9 13.0 14.4 85 1.4 NE 28 41 15 22 1002.8 1002.8 0.0
04/08:00pm 17.6 13.1 13.9 79 2.1 NNE 30 41 16 22 1002.6 1002.6 0.0
04/07:30pm 18.4 13.4 13.3 72 2.9 NNE 32 39 17 21 1002.6 1002.6 0.0
04/07:00pm 17.9 13.4 13.8 77 2.3 NE 30 35 16 19 1003.2 1003.2 0.0
04/06:30pm 17.7 11.9 14.0 79 2.1 NE 37 44 20 24 1003.5 1003.5 0.0
04/06:00pm 18.2 11.2 13.7 75 2.6 NE 43 52 23 28 1003.6 1003.6 0.0
04/05:30pm 18.8 11.6 13.0 69 3.3 NE 43 52 23 28 1003.9 1003.9 0.0
04/05:00pm 19.6 12.7 12.8 65 3.8 NE 41 48 22 26 1004.4 1004.4 0.0
04/04:30pm 19.8 13.6 12.6 63 4.0 NE 37 46 20 25 1004.9 1004.9 0.0
04/04:00pm 19.6 12.9 12.4 63 4.0 ENE 39 46 21 25 1005.5 1005.5 0.0
04/03:30pm 20.2 13.4 11.9 59 4.6 ENE 39 46 21 25 1006.2 1006.2 0.0
04/03:00pm 20.6 13.4 10.4 52 5.5 NE 39 48 21 26 1006.7 1006.7 0.0
04/02:30pm 20.2 12.7 10.9 55 5.1 ENE 41 50 22 27 1007.5 1007.5 0.0
04/02:00pm 19.9 13.7 11.4 58 4.7 ENE 35 43 19 23 1008.1 1008.1 0.0
04/01:30pm 20.1 14.3 11.6 58 4.7 NE 33 44 18 24 1008.6 1008.6 0.0
04/01:00pm 19.9 14.0 10.3 54 5.2 ENE 32 41 17 22 1009.3 1009.3 0.0
04/12:30pm 19.6 13.4 9.5 52 5.4 NE 32 39 17 21 1009.7 1009.7 0.0
04/12:00pm 19.0 12.7 9.8 55 4.9 NE 33 39 18 21 1010.0 1010.0 0.0
04/11:30am 18.5 12.9 10.1 58 4.5 NE 30 33 16 18 1010.6 1010.6 0.0
04/11:00am 18.9 14.9 11.7 63 4.0 ENE 24 28 13 15 1011.2 1011.2 0.0
04/10:30am 18.3 14.2 11.6 65 3.7 NE 24 30 13 16 1011.6 1011.6 0.0
04/10:00am 17.2 13.0 9.9 62 3.8 ENE 22 28 12 15 1012.0 1012.0 0.0
04/09:30am 17.2 13.5 10.1 63 3.8 ENE 20 26 11 14 1012.2 1012.2 0.0
04/09:00am 16.5 13.7 10.1 66 3.4 ENE 15 19 8 10 1012.5 1012.5 0.0
04/08:30am 15.4 12.4 9.3 67 3.1 ENE 15 19 8 10 1012.6 1012.6 0.0
04/08:00am 14.7 13.1 8.9 68 2.9 NE 7 9 4 5 1013.0 1013.0 0.0
04/07:30am 14.1 13.2 9.1 72 2.5 NE 4 6 2 3 1013.5 1013.5 0.0
04/07:00am 12.9 12.1 9.7 81 1.6 NE 4 6 2 3 1013.5 1013.5 0.0
04/06:30am 11.6 10.3 9.2 85 1.2 NE 6 6 3 3 1013.4 1013.4 0.0
04/06:00am 10.4 8.9 8.5 88 0.9 NE 6 7 3 4 1013.1 1013.1 0.0
04/05:30am 9.8 8.2 7.9 88 0.9 NE 6 6 3 3 1013.1 1013.1 0.0
04/05:00am 10.1 8.5 8.2 88 0.9 NE 6 7 3 4 1013.2 1013.2 0.0
04/04:30am 9.5 7.8 7.4 87 1.0 NE 6 7 3 4 1013.4 1013.4 0.0
04/04:00am 10.5 8.7 7.2 80 1.6 NE 6 9 3 5 1013.5 1013.5 0.0
04/03:30am 10.7 8.8 6.8 77 1.8 NE 6 9 3 5 1013.7 1013.7 0.0
04/03:00am 11.5 10.9 7.2 75 2.1 CALM 0 0 0 0 1013.9 1013.9 0.0
04/02:30am 11.1 10.1 7.2 77 1.9 NE 2 4 1 2 1014.1 1014.1 0.0
04/02:00am 11.6 10.5 6.9 73 2.2 NE 2 2 1 1 1014.5 1014.5 0.0
04/01:30am 11.5 10.4 6.8 73 2.2 NE 2 4 1 2 1014.8 1014.8 0.0
04/01:00am 12.9 11.6 7.6 70 2.6 NE 4 7 2 4 1014.9 1014.9 0.0
04/12:30am 12.6 11.6 7.5 71 2.5 NE 2 4 1 2 1014.9 1014.9 0.0
04/12:00am 11.6 10.1 6.9 73 2.2 NE 4 6 2 3 1015.1 1015.1 0.0
 
Date/Time
EDT
Temp
°C
App
Temp
°C
Dew
Point
°C
Rel
Hum
%
Delta-T
°C
Wind Press
QNH
hPa
Press
MSL
hPa
Rain since
9am
mm
Dir  Spd
km/h
Gust
km/h
Spd
kts
Gust
kts
03/11:30pm 12.6 10.0 7.7 72 2.4 NE 11 13 6 7 1015.1 1015.1 0.0
03/11:00pm 12.8 9.0 7.7 71 2.5 NE 17 19 9 10 1014.9 1014.9 0.0
03/10:30pm 13.1 8.8 7.8 70 2.6 NE 20 26 11 14 1014.9 1014.9 0.0
03/10:00pm 13.2 9.2 8.1 71 2.5 NE 19 22 10 12 1015.0 1015.0 0.0
03/09:30pm 13.3 8.7 8.0 70 2.6 NE 22 32 12 17 1014.9 1014.9 0.0
03/09:00pm 13.8 9.6 8.2 69 2.8 NE 20 28 11 15 1014.6 1014.6 0.0
03/08:30pm 14.1 8.3 7.9 66 3.1 NE 28 33 15 18 1014.4 1014.4 0.0
03/08:00pm 14.4 8.4 7.2 62 3.5 NE 28 35 15 19 1014.1 1014.1 0.0
03/07:30pm 14.6 8.3 7.6 63 3.5 ENE 30 37 16 20 1013.9 1013.9 0.0
03/07:00pm 15.5 9.2 7.5 59 4.0 ENE 30 37 16 20 1013.6 1013.6 0.0
03/06:30pm 15.3 8.9 7.1 58 4.0 NE 30 39 16 21 1013.5 1013.5 0.0
03/06:00pm 16.1 9.2 7.3 56 4.4 ENE 33 43 18 23 1013.3 1013.3 0.0
03/05:30pm 16.1 9.9 7.8 58 4.2 ENE 30 35 16 19 1013.3 1013.3 0.0
03/05:00pm 16.0 9.2 7.0 55 4.4 NE 32 37 17 20 1013.3 1013.3 0.0
03/04:30pm 16.9 10.2 7.5 54 4.7 NE 32 39 17 21 1013.2 1013.2 0.0
03/04:00pm 16.5 9.7 6.9 53 4.7 NE 32 37 17 20 1013.4 1013.4 0.0
03/03:30pm 16.5 10.2 7.4 55 4.5 NE 30 39 16 21 1013.5 1013.5 0.0
03/03:00pm 17.7 12.2 7.4 51 5.2 NE 26 32 14 17 1013.5 1013.5 0.0
03/02:30pm 16.3 11.4 7.0 54 4.6 NE 22 28 12 15 1013.7 1013.7 0.0
03/02:00pm 16.2 12.3 6.9 54 4.6 ENE 17 24 9 13 1013.9 1013.9 0.0
03/01:30pm 16.5 13.4 5.5 48 5.3 SE 11 17 6 9 1013.6 1013.6 0.0
03/01:00pm 16.9 14.3 6.1 49 5.3 SSW 9 13 5 7 1013.5 1013.5 0.0
03/12:30pm 17.1 14.2 6.6 50 5.2 SSW 11 13 6 7 1013.8 1013.8 0.0
03/12:00pm 16.1 13.4 5.4 49 5.1 S 9 13 5 7 1014.0 1014.0 0.0
03/11:30am 15.9 13.3 6.1 52 4.7 SSW 9 13 5 7 1014.1 1014.1 0.0
03/11:00am 15.4 13.2 6.2 54 4.4 SW 7 11 4 6 1014.0 1014.0 0.0
03/10:30am 14.5 12.1 5.3 54 4.3 SW 7 9 4 5 1013.7 1013.7 0.0
03/10:00am 14.9 11.7 5.1 52 4.6 WSW 11 13 6 7 1013.6 1013.6 0.0
03/09:30am 14.6 10.7 5.4 54 4.3 WSW 15 20 8 11 1013.4 1013.4 0.0
03/09:00am 14.1 9.5 5.5 56 4.1 WSW 19 22 10 12 1013.7 1013.7 0.4
03/08:30am 13.3 9.2 4.2 54 4.1 WNW 15 24 8 13 1013.6 1013.6 0.4
03/08:00am 13.1 8.2 5.3 59 3.6 W 20 26 11 14 1013.3 1013.3 0.4
03/07:30am 13.0 8.6 4.9 58 3.7 WNW 17 24 9 13 1012.9 1012.9 0.4
03/07:00am 12.0 9.1 4.7 61 3.3 NW 9 13 5 7 1012.8 1012.8 0.4
03/06:30am 10.7 7.3 4.2 64 2.9 NW 11 17 6 9 1012.6 1012.6 0.4
03/06:00am 10.3 7.1 3.3 62 3.0 NW 9 13 5 7 1012.4 1012.4 0.4
03/05:30am 10.7 7.2 3.3 60 3.2 NW 11 13 6 7 1012.2 1012.2 0.4
03/05:00am 10.6 5.9 2.9 59 3.3 NW 17 22 9 12 1011.7 1011.7 0.4
03/04:30am 10.6 6.6 2.7 58 3.4 NNW 13 22 7 12 1011.4 1011.4 0.4
03/04:00am 10.8 6.3 2.4 56 3.6 NW 15 19 8 10 1011.4 1011.4 0.4
03/03:30am 10.7 7.3 2.0 55 3.7 NW 9 17 5 9 1011.4 1011.4 0.4
03/03:00am 10.5 7.0 1.3 53 3.8 NW 9 13 5 7 1011.3 1011.3 0.4
03/02:30am 11.3 7.0 1.0 49 4.3 NW 13 19 7 10 1011.1 1011.1 0.4
03/02:00am 11.7 6.6 0.8 47 4.5 NW 17 22 9 12 1011.0 1011.0 0.4
03/01:30am 11.8 6.3 0.9 47 4.6 NW 19 26 10 14 1011.0 1011.0 0.4
03/01:00am 11.8 6.7 0.9 47 4.6 NW 17 24 9 13 1011.3 1011.3 0.4
03/12:30am 11.7 7.0 0.8 47 4.5 NNW 15 20 8 11 1011.4 1011.4 0.4
03/12:00am 11.6 7.3 1.0 48 4.4 NNW 13 19 7 10 1011.3 1011.3 0.4
 
Date/Time
EDT
Temp
°C
App
Temp
°C
Dew
Point
°C
Rel
Hum
%
Delta-T
°C
Wind Press
QNH
hPa
Press
MSL
hPa
Rain since
9am
mm
Dir  Spd
km/h
Gust
km/h
Spd
kts
Gust
kts
02/11:30pm 11.6 7.3 0.7 47 4.5 NW 13 19 7 10 1011.3 1011.3 0.4
02/11:00pm 12.0 7.8 1.6 49 4.4 NW 13 20 7 11 1011.2 1011.2 0.4
02/10:30pm 12.5 7.8 3.2 53 4.1 NW 17 24 9 13 1011.0 1011.0 0.4
02/10:00pm 12.4 7.1 3.1 53 4.1 WNW 20 28 11 15 1010.7 1010.7 0.4
02/09:30pm 13.2 7.7 2.1 47 4.8 WNW 20 28 11 15 1010.5 1010.5 0.4
02/09:00pm 13.7 7.7 5.1 56 4.0 W 26 41 14 22 1009.9 1009.9 0.4
02/08:30pm 14.6 10.0 6.7 59 3.8 W 20 28 11 15 1009.0 1009.0 0.4
02/08:00pm 15.2 10.4 5.7 53 4.5 W 20 33 11 18 1008.5 1008.5 0.4
02/07:30pm 16.5 11.1 1.4 36 6.7 WNW 19 28 10 15 1008.0 1008.0 0.4
02/07:00pm 16.8 10.0 0.5 33 7.1 WNW 26 37 14 20 1007.4 1007.4 0.4
02/06:30pm 19.1 13.9 2.5 33 7.7 WNW 19 26 10 14 1007.0 1007.0 0.4
02/06:00pm 19.3 13.4 3.9 36 7.3 W 24 30 13 16 1006.5 1006.5 0.4
02/05:30pm 18.7 12.3 3.3 36 7.2 W 26 35 14 19 1006.3 1006.3 0.4
02/05:00pm 19.8 12.6 3.1 33 7.9 W 30 43 16 23 1006.2 1006.2 0.4
02/04:30pm 20.2 12.2 0.6 27 8.8 W 32 50 17 27 1006.0 1006.0 0.4
02/04:18pm 20.2 13.5 3.4 33 8.0 W 28 46 15 25 1005.8 1005.8 0.4
02/04:00pm 19.6 14.5 6.0 41 6.8 WSW 22 32 12 17 1005.9 1005.9 0.4
02/03:30pm 19.1 13.4 2.9 34 7.5 SW 22 30 12 16 1005.6 1005.6 0.4
02/03:00pm 19.1 12.8 3.7 36 7.3 WSW 26 32 14 17 1005.6 1005.6 0.4
02/02:30pm 18.9 13.7 5.4 41 6.6 WSW 22 26 12 14 1005.5 1005.5 0.4
02/02:00pm 18.5 13.2 6.7 46 5.9 SW 24 32 13 17 1005.3 1005.3 0.4
02/01:30pm 18.3 14.3 6.5 46 5.9 SW 17 22 9 12 1005.0 1005.0 0.4
02/01:00pm 17.8 11.2 7.8 52 5.1 SW 32 44 17 24 1005.0 1005.0 0.4
02/12:35pm 18.3 11.5 5.2 42 6.3 W 30 50 16 27 1004.7 1004.7 0.4
02/12:30pm 18.4 11.5 4.6 40 6.6 W 30 44 16 24 1004.8 1004.8 0.4
02/12:00pm 17.5 12.2 8.4 55 4.7 WSW 26 32 14 17 1004.9 1004.9 0.4
02/11:30am 16.4 12.4 8.9 61 3.9 WSW 20 30 11 16 1004.7 1004.7 0.4

Latest Capital City Observations: Canberra | Sydney | Melbourne | Brisbane | Adelaide | Perth | Hobart | Darwin

Other Formats:

Comma delimited format used in spreadsheet applications
http://www.bom.gov.au/fwo/IDT60901/IDT60901.94951.axf

JavaScript Object Notation format (JSON) in row-major order
http://www.bom.gov.au/fwo/IDT60901/IDT60901.94951.json